Date,TemperatureHighF,TemperatureAvgF,TemperatureLowF,DewpointHighF,DewpointAvgF,DewpointLowF,HumidityHigh,HumidityAvg,HumidityLow,PressureMaxIn,PressureMinIn,WindSpeedMaxMPH,WindSpeedAvgMPH,GustSpeedMaxMPH,PrecipitationSumIn
2013-1-1,36.9,27.4,18.7,21.0,15.3,11.3,83,61,41,30.41,30.14,12,2,12,0.00
2013-1-2,35.9,22.9,12.9,13.1,9.8,5.7,80,59,28,30.47,30.32,8,1,11,0.00
2013-1-3,38.3,24.8,14.6,15.8,11.2,6.5,72,57,36,30.56,30.43,15,1,15,0.00
2013-1-4,34.7,21.2,10.8,12.2,5.5,0.4,71,52,29,30.58,30.40,9,2,9,0.00
2013-1-5,41.9,27.2,13.0,9.8,6.3,4.1,69,43,21,30.61,30.47,7,1,7,0.00
2013-1-6,43.7,27.6,13.1,12.8,8.3,5.2,73,46,23,30.58,30.28,8,0,8,0.00
2013-1-7,49.2,35.7,27.3,18.0,13.6,9.7,55,41,27,30.28,30.01,10,1,10,0.00
2013-1-8,50.1,35.1,23.0,17.7,13.9,9.9,64,44,20,30.34,30.02,16,3,16,0.00
2013-1-9,53.3,36.0,22.7,15.5,13.7,11.6,64,42,21,30.53,30.22,9,2,9,0.00
2013-1-10,47.7,34.6,21.6,22.9,14.3,11.4,66,45,25,30.22,29.80,11,1,11,0.00
2013-1-11,42.9,33.8,20.2,25.0,6.4,-9.6,62,33,17,29.97,29.66,20,4,20,0.00
2013-1-12,33.7,21.0,10.9,1.5,-4.2,-11.9,53,34,17,30.24,29.97,12,1,12,0.00
2013-1-13,31.7,18.1,7.2,3.7,-1.6,-4.4,61,43,24,30.35,30.18,5,1,11,0.00
2013-1-14,29.2,20.6,13.7,23.7,10.9,-0.4,87,66,46,30.33,30.15,15,1,15,0.01
2013-1-15,26.0,16.2,5.7,6.8,2.5,-0.5,81,56,35,30.68,30.33,16,2,16,0.00
2013-1-16,39.9,24.5,9.1,14.5,8.0,1.6,74,50,33,30.74,30.56,10,1,10,0.00
2013-1-17,49.5,30.8,16.9,16.7,13.8,9.8,74,52,25,30.73,30.54,6,1,6,0.00
2013-1-18,52.1,33.9,18.9,19.6,16.8,13.9,83,53,26,30.55,30.34,6,0,6,0.00
2013-1-19,53.9,36.7,24.2,19.5,17.4,11.6,70,48,19,30.48,30.34,9,1,9,0.00
2013-1-20,53.7,35.9,18.8,18.5,14.0,8.9,78,45,18,30.44,30.26,9,1,9,0.00
2013-1-21,54.7,37.2,19.3,17.9,12.8,9.7,68,39,19,30.42,30.26,11,2,11,0.00
2013-1-22,58.4,39.6,22.5,18.0,14.1,7.2,74,40,14,30.41,30.27,10,0,10,0.00
2013-1-23,59.8,39.2,22.2,14.6,11.4,5.7,66,36,12,30.46,30.31,7,1,7,0.00
2013-1-24,61.9,44.0,25.3,34.7,16.9,9.7,62,37,15,30.39,30.20,8,1,8,0.00
2013-1-25,57.9,47.8,36.0,39.1,34.7,29.4,78,61,48,30.27,30.10,6,0,6,0.00
2013-1-26,56.4,47.4,40.4,49.7,40.4,34.2,91,77,61,30.12,29.81,17,1,17,0.11
2013-1-27,60.4,48.7,40.5,40.8,37.4,31.8,88,68,36,29.95,29.82,14,2,14,0.00
2013-1-28,56.0,44.8,37.3,38.7,32.5,17.9,87,63,35,29.86,29.65,20,4,20,0.02
2013-1-29,37.2,32.3,27.0,22.4,14.3,2.1,71,48,25,30.09,29.69,22,4,22,0.00
2013-1-30,42.4,32.0,22.0,17.1,13.9,7.2,67,49,28,30.36,30.08,19,3,19,0.00
2013-1-31,53.6,37.1,21.7,24.0,19.3,15.6,80,52,23,30.44,30.30,13,1,13,0.00
2013-2-1,56.1,39.4,22.7,22.7,19.7,14.7,82,50,23,30.35,30.22,14,2,14,0.00
2013-2-2,56.9,42.0,27.9,22.9,20.0,16.6,71,44,21,30.42,30.29,10,1,10,0.00
2013-2-3,51.9,41.4,28.8,29.5,21.0,16.1,65,46,24,30.34,30.01,6,0,6,0.00
2013-2-4,58.3,45.0,32.6,30.1,25.1,16.7,80,48,21,30.12,29.96,14,2,14,0.00
2013-2-5,60.4,43.6,28.6,24.1,19.2,13.8,71,41,17,30.11,29.96,9,1,9,0.00
2013-2-6,62.0,44.0,26.2,27.6,20.9,16.4,67,42,25,30.02,29.84,12,1,12,0.00
2013-2-7,57.2,44.4,30.3,27.1,21.6,11.9,73,44,17,30.15,29.99,14,1,14,0.00
2013-2-8,58.2,45.6,31.9,23.5,20.5,16.7,61,39,24,30.11,29.72,22,4,22,0.00
2013-2-9,49.9,38.1,30.5,24.3,14.4,3.6,59,39,20,29.89,29.59,26,4,26,0.00
2013-2-10,30.6,30.0,29.6,17.9,17.3,16.4,61,59,56,29.91,29.89,11,3,11,0.00
2013-2-11,47.4,33.1,19.9,22.5,16.5,0.8,86,56,15,30.15,29.99,17,2,17,0.00
2013-2-12,42.7,32.7,24.2,23.2,12.9,4.7,74,47,21,30.28,30.04,15,3,15,0.00
2013-2-13,49.5,35.5,20.8,18.0,13.0,9.9,64,41,23,30.31,30.13,20,3,20,0.00
2013-2-14,53.2,39.6,25.1,22.0,17.4,13.1,70,43,21,30.26,30.08,17,3,17,0.00
2013-2-15,52.9,39.7,25.8,23.5,13.2,-0.4,77,40,11,30.42,30.24,24,2,24,0.00
2013-2-16,59.2,40.5,23.4,12.5,7.3,-4.3,57,29,9,30.50,30.17,11,1,11,0.00
2013-2-17,60.7,42.4,22.2,7.3,3.4,-4.3,50,23,7,30.19,29.72,20,2,20,0.00
2013-2-18,54.1,42.4,30.4,17.8,-4.0,-28.2,48,18,3,30.08,29.81,19,3,19,0.00
2013-2-19,61.2,42.1,23.5,34.6,5.5,-10.7,66,26,8,30.10,29.73,27,4,27,0.00
2013-2-20,51.4,43.6,34.0,35.1,27.9,13.4,76,57,23,29.74,29.42,23,4,23,0.00
2013-2-21,46.7,35.6,27.6,27.8,23.9,19.4,93,65,37,29.95,29.51,15,3,15,0.17
2013-2-22,44.4,35.1,28.5,25.2,21.3,12.2,76,59,30,30.12,29.93,14,3,14,0.00
2013-2-23,48.9,35.3,20.5,18.5,14.0,8.6,74,44,23,30.17,29.78,15,2,15,0.00
2013-2-24,42.4,34.8,28.1,25.8,16.0,4.0,90,49,23,29.95,29.66,24,4,24,0.00
2013-2-25,49.9,36.1,25.1,25.4,12.2,-1.0,87,43,14,30.18,29.95,13,2,13,0.02
2013-2-26,48.9,35.3,23.3,17.2,6.6,-10.7,70,34,11,30.17,29.86,22,3,22,0.00
2013-2-27,46.2,33.8,20.3,10.6,5.8,-0.3,62,33,15,30.38,30.17,12,1,12,0.00
2013-2-28,54.2,39.0,25.4,9.0,3.8,-6.0,41,25,8,30.43,30.28,12,2,15,0.00
2013-3-1,60.4,44.4,33.6,20.7,12.6,5.3,41,28,17,30.42,30.23,15,3,15,0.00
2013-3-2,63.7,43.7,33.3,23.7,21.4,19.6,59,43,20,30.40,30.23,8,1,8,0.00
2013-3-8,50.7,45.1,40.3,40.5,35.4,-99.9,85,71,65,29.73,29.63,18,-8,21,19.00
2013-3-9,47.1,39.6,33.1,34.7,24.8,15.4,80,57,31,29.99,29.73,15,2,15,0.00
2013-3-10,53.6,41.1,30.7,29.3,23.5,12.9,84,54,24,30.18,29.99,12,1,13,0.00
2013-3-11,63.9,47.1,28.9,20.5,16.7,4.3,67,34,10,30.21,29.97,17,2,19,0.00
2013-3-12,67.8,51.6,35.2,26.1,21.8,19.2,58,33,17,30.18,30.02,12,1,13,0.00
2013-3-13,71.8,53.3,34.3,26.8,22.9,16.7,67,35,15,30.29,30.09,14,1,14,0.00
2013-3-14,75.2,56.7,38.8,24.1,18.3,8.4,51,26,8,30.25,30.05,10,1,11,0.00
2013-3-15,79.2,58.2,37.4,20.8,15.4,1.9,47,23,6,30.09,29.79,9,1,10,0.00
2013-3-16,73.6,60.4,46.6,34.0,20.5,13.1,46,22,12,29.80,29.56,15,3,19,0.00
2013-3-17,70.3,55.0,42.1,38.5,20.1,-25.2,68,35,2,29.73,29.54,17,2,20,0.00
2013-3-18,69.1,53.1,36.5,12.2,6.0,-1.8,35,17,6,29.91,29.73,19,2,22,0.00
2013-3-19,64.6,50.8,40.5,18.3,11.3,4.3,36,21,12,30.11,29.89,14,1,17,0.00
2013-3-20,63.7,49.7,31.5,25.9,18.1,14.5,51,30,16,30.21,29.80,12,2,12,0.00
2013-3-21,73.4,59.6,48.2,32.4,16.9,-13.5,42,23,3,29.80,29.46,18,3,19,0.00
2013-3-22,67.5,52.3,35.1,27.3,12.8,2.8,42,23,9,29.70,29.49,19,2,23,0.00
2013-3-23,52.0,41.5,32.2,27.5,2.4,-20.2,56,23,6,30.09,29.60,26,5,26,0.00
2013-3-24,55.2,39.7,24.4,-0.4,-6.1,-13.9,27,15,8,30.20,29.94,19,3,19,0.00
2013-3-25,57.0,41.2,25.2,10.6,6.2,-1.3,47,25,14,30.25,30.07,13,1,14,0.00
2013-3-26,66.9,49.0,29.5,12.2,9.3,6.8,43,22,10,30.21,29.89,19,3,24,0.00
2013-3-27,71.8,58.8,43.2,15.4,10.9,3.9,32,16,8,29.98,29.80,12,2,13,0.00
2013-3-28,72.9,61.6,45.5,23.7,14.9,3.9,31,17,8,29.96,29.82,17,2,18,0.00
2013-3-29,75.9,60.1,44.4,24.8,19.9,11.1,45,23,9,30.02,29.85,11,1,11,0.00
2013-3-30,73.0,59.1,40.3,26.2,19.9,13.8,45,24,11,30.03,29.82,13,1,14,0.00
2013-3-31,74.3,61.5,49.6,33.4,28.0,24.3,47,29,17,29.93,29.74,18,2,18,0.00
2013-4-1,76.3,62.6,46.0,29.8,17.5,-0.6,45,21,6,29.88,29.64,15,1,16,0.00
2013-4-2,68.5,57.2,45.1,28.8,16.5,-6.5,42,21,6,29.84,29.61,21,2,22,0.00
2013-4-3,67.6,52.9,38.8,32.7,26.4,16.5,68,40,15,30.03,29.84,13,2,16,0.00
2013-4-4,74.5,57.2,40.1,28.8,19.0,3.7,59,28,7,30.14,29.92,9,1,10,0.00
2013-4-5,77.5,64.0,49.8,21.7,13.4,5.9,30,15,7,29.95,29.59,18,3,19,0.00
2013-4-6,77.4,63.9,48.7,25.3,19.9,10.6,38,20,8,29.79,29.59,17,2,19,0.00
2013-4-7,77.5,64.9,48.7,26.4,18.9,9.7,40,19,8,29.69,29.50,12,2,13,0.00
2013-4-8,77.9,64.9,49.5,29.1,20.7,8.2,40,20,7,29.54,29.11,28,5,30,0.00
2013-4-9,55.4,46.2,40.5,37.6,31.9,25.7,84,59,36,29.78,29.16,18,4,19,0.09
2013-4-10,49.5,42.3,36.1,35.6,26.6,19.8,86,55,36,29.97,29.78,15,2,17,0.00
2013-4-11,65.8,49.1,30.6,30.4,24.0,17.1,69,40,21,30.00,29.77,22,3,22,0.00
2013-4-12,70.7,58.2,41.9,33.3,29.0,20.3,66,35,17,29.83,29.66,17,1,17,0.00
2013-4-13,77.2,59.9,40.3,29.5,21.2,9.1,57,27,9,29.78,29.48,21,2,21,0.00
2013-4-14,79.9,66.1,56.5,25.0,21.5,14.7,28,19,9,29.52,29.35,22,4,28,0.00
2013-4-15,82.8,64.0,46.0,25.5,18.6,3.4,42,20,5,29.56,29.33,19,3,19,0.00
2013-4-16,81.7,66.8,52.5,25.0,13.2,-15.5,28,15,2,29.59,29.37,26,6,27,0.00
2013-4-17,64.8,53.5,40.3,28.6,18.7,6.1,41,26,11,29.85,29.42,25,3,25,0.00
2013-4-18,51.6,41.8,31.5,17.6,5.5,-4.0,40,24,11,30.24,29.85,20,3,23,0.00
2013-4-19,63.9,46.5,28.0,9.1,3.6,-4.0,41,19,7,30.34,29.95,11,1,11,0.00
2013-4-20,70.9,56.6,43.5,19.8,5.9,-7.1,26,13,9,29.96,29.71,19,3,20,0.00
2013-4-21,76.5,57.9,37.2,24.4,16.7,-1.5,55,25,5,30.03,29.81,14,1,15,0.00
2013-4-22,83.7,65.8,45.1,28.8,13.3,-0.6,45,16,5,29.87,29.55,19,2,19,0.00
2013-4-23,70.0,58.2,43.9,30.9,19.4,-24.5,52,25,3,29.93,29.59,24,4,24,0.00
2013-4-24,70.5,49.9,30.4,22.8,17.2,12.0,60,32,11,30.12,29.93,10,1,10,0.00
2013-4-25,78.4,67.5,53.2,29.5,23.7,11.3,36,20,10,29.98,29.64,22,-1,23,0.00
2013-4-26,78.1,62.1,45.9,32.2,19.3,-9.2,52,25,3,30.01,29.83,12,2,13,0.00
2013-4-27,78.6,62.9,46.9,29.1,13.5,-18.6,46,22,2,30.06,29.84,13,1,13,0.00
2013-4-28,81.9,63.5,42.4,16.9,4.8,-28.7,32,13,2,29.93,29.66,10,1,11,0.00
2013-4-29,87.3,67.6,45.1,26.2,13.0,4.3,35,14,5,29.76,29.49,15,1,15,0.00
2013-4-30,88.3,71.7,55.2,22.6,13.0,-2.7,26,12,4,29.60,29.42,24,2,24,0.00
2013-5-1,85.5,69.9,50.7,29.1,10.4,-14.8,43,12,4,29.92,29.53,18,3,20,0.00
2013-5-2,63.0,50.1,38.3,29.1,17.2,8.6,55,30,13,30.33,29.91,22,4,22,0.00
2013-5-3,68.4,52.0,34.9,17.4,12.8,3.7,43,23,9,30.34,29.91,13,2,13,0.00
2013-5-4,78.3,60.9,40.5,17.8,9.4,0.0,39,16,5,29.93,29.69,28,4,28,0.00
2013-5-5,75.0,61.7,50.5,31.5,18.7,6.3,26,19,12,29.94,29.78,33,7,34,0.00
2013-5-6,71.1,62.6,53.6,40.3,26.4,14.9,49,26,17,29.83,29.73,17,3,19,0.00
2013-5-7,77.7,63.4,46.8,39.0,30.1,19.8,64,32,12,29.86,29.64,21,2,21,0.00
2013-5-8,73.8,61.7,46.0,36.1,25.2,11.8,62,29,10,29.84,29.71,24,2,24,0.00
2013-5-9,73.8,61.2,46.6,36.7,25.1,18.5,47,27,14,29.93,29.76,15,2,15,0.00
2013-5-10,69.3,58.9,49.5,43.7,36.8,31.5,67,45,27,30.13,29.90,16,3,18,0.00
2013-5-11,73.8,58.8,46.0,43.5,37.7,26.6,86,50,18,30.19,30.11,22,2,23,0.00
2013-5-12,81.9,63.0,43.3,37.4,32.7,23.7,72,37,13,30.20,29.94,11,1,12,0.00
2013-5-13,85.1,68.3,49.6,38.1,29.8,23.9,54,27,12,30.08,29.85,12,2,12,0.00
2013-5-14,88.5,69.6,53.1,52.3,28.0,14.7,70,25,9,29.90,29.62,15,2,16,0.05
2013-5-15,89.8,72.3,60.3,50.0,37.8,20.1,64,34,10,29.73,29.54,16,1,19,0.05
2013-5-16,88.3,72.8,55.2,28.0,18.2,-3.3,32,15,3,29.75,29.54,15,2,18,0.00
2013-5-17,88.0,72.3,52.9,33.1,19.9,7.2,37,16,6,29.75,29.54,26,2,30,0.00
2013-5-18,79.2,69.0,53.1,30.0,20.9,9.1,37,17,9,29.73,29.52,21,2,21,0.00
2013-5-19,77.2,65.7,55.9,36.5,30.0,16.3,47,28,11,29.71,29.60,22,3,22,0.00
2013-5-20,78.6,63.7,49.8,36.0,27.4,-3.6,58,30,4,29.79,29.61,26,3,26,0.00
2013-5-21,82.8,64.9,47.7,35.8,29.1,16.9,58,31,9,29.87,29.64,13,1,16,0.00
2013-5-22,88.3,71.7,50.9,34.2,19.0,5.0,43,18,5,29.72,29.52,14,2,15,0.00
2013-5-23,92.8,75.8,55.0,49.5,18.3,1.2,42,14,4,29.71,29.49,27,3,27,0.00
2013-5-24,89.4,75.5,61.9,49.8,31.9,14.7,55,25,7,29.77,29.58,17,3,18,0.00
2013-5-25,92.7,75.1,54.0,39.9,19.8,-3.1,39,15,3,29.81,29.55,15,2,17,0.00
2013-5-26,90.0,74.4,54.7,30.6,11.7,-25.2,37,12,1,29.77,29.56,16,2,16,0.00
2013-5-27,86.0,70.9,55.8,31.1,12.6,-5.1,34,12,3,29.73,29.54,15,1,15,0.00
2013-5-28,86.5,71.1,50.5,27.1,13.5,-13.0,37,14,2,29.61,29.34,14,2,14,0.00
2013-5-29,83.7,72.1,59.4,37.8,21.7,-1.7,39,17,4,29.48,29.33,16,2,18,0.00
2013-5-30,90.0,72.9,51.4,30.7,21.4,13.3,36,16,7,29.64,29.47,19,2,23,0.00
2013-5-31,88.9,76.6,63.3,38.8,24.5,-2.0,38,17,5,29.67,29.51,23,3,23,0.00
2013-6-1,89.1,72.0,51.3,29.5,8.2,-26.7,29,11,1,29.82,29.67,20,2,20,0.00
2013-6-2,88.7,74.4,63.3,46.8,35.7,27.5,44,25,16,29.82,29.54,27,4,28,0.00
2013-6-3,93.7,77.6,64.0,50.7,36.1,4.6,55,29,5,29.71,29.47,16,2,17,0.00
2013-6-4,94.1,79.0,56.8,32.9,17.5,-8.9,34,12,2,29.70,29.50,17,2,19,0.00
2013-6-5,91.2,77.9,65.1,45.3,31.9,12.9,34,20,7,29.66,29.49,17,2,19,0.00
2013-6-6,90.7,73.2,55.4,45.3,38.6,22.1,60,32,10,29.75,29.58,27,3,31,0.00
2013-6-7,91.9,75.7,59.2,51.6,42.5,22.3,72,36,9,29.75,29.47,27,2,28,0.00
2013-6-8,98.1,79.4,58.5,45.9,34.6,16.9,63,26,6,29.62,29.42,17,2,19,0.00
2013-6-9,96.8,82.5,67.6,48.2,42.6,31.1,48,27,12,29.67,29.52,23,3,27,0.00
2013-6-10,101.7,86.6,70.9,48.7,35.4,16.3,44,21,5,29.67,29.47,25,3,25,0.00
2013-6-11,102.6,86.0,68.5,36.9,22.1,-4.4,28,12,2,29.67,29.48,13,1,15,0.00
2013-6-12,100.4,82.0,60.8,36.9,23.8,5.0,34,14,4,29.75,29.59,9,1,9,0.00
2013-6-13,99.0,81.2,63.3,57.4,38.4,27.7,53,24,9,29.72,29.54,24,2,29,0.04
2013-6-14,93.9,78.0,68.7,67.5,50.2,39.6,76,39,16,29.66,29.49,25,3,27,0.16
2013-6-15,94.5,77.6,59.7,54.9,42.8,26.4,77,36,10,29.79,29.64,20,2,20,0.00
2013-6-16,94.5,79.4,63.9,49.1,40.4,30.6,54,27,12,29.79,29.63,20,2,20,0.00
2013-6-17,94.5,78.9,61.9,48.7,40.4,28.8,52,29,10,29.80,29.58,30,2,30,0.00
2013-6-18,92.8,78.6,65.1,52.9,46.1,34.5,62,36,14,29.79,29.52,30,6,32,0.00
2013-6-19,99.0,82.5,63.1,98.4,23.0,-20.7,44,19,1,29.63,29.40,18,3,20,0.00
2013-6-20,97.3,79.5,57.9,97.0,22.4,-24.9,35,11,1,29.67,29.47,15,2,17,0.00
2013-6-21,96.8,79.8,61.5,46.9,19.1,-21.1,46,15,1,29.70,29.49,21,2,21,0.00
2013-6-22,95.4,78.9,58.8,31.3,13.2,-7.6,33,11,2,29.69,29.49,16,2,17,0.00
2013-6-23,94.5,78.6,57.4,27.5,12.8,-1.5,31,10,3,29.68,29.46,15,2,15,0.00
2013-6-24,97.0,80.1,62.1,34.2,14.1,-21.6,31,11,2,29.66,29.49,17,2,17,0.00
2013-6-25,96.4,80.1,60.6,31.6,20.5,7.7,30,12,4,29.73,29.58,11,1,11,0.00
2013-6-26,100.8,82.0,60.8,38.8,26.1,15.6,34,15,5,29.79,29.62,11,1,12,0.00
2013-6-27,107.1,87.5,63.9,39.2,27.3,8.8,36,14,3,29.78,29.61,16,2,16,0.00
2013-6-28,98.1,85.4,76.1,50.2,42.5,30.9,37,23,12,29.79,29.65,28,4,29,0.00
2013-6-29,99.0,81.8,64.9,50.4,44.4,32.7,58,30,11,29.80,29.60,27,2,29,0.00
2013-6-30,100.8,80.7,66.7,52.0,46.3,33.8,51,32,10,29.82,29.54,26,3,29,0.00
2013-7-1,90.0,73.4,61.2,55.2,51.2,44.6,79,49,23,29.91,29.73,29,4,29,0.01
2013-7-2,88.9,73.3,61.9,55.0,48.4,42.8,61,43,22,29.96,29.70,23,3,23,0.00
2013-7-3,89.1,71.7,58.3,59.4,52.7,42.8,85,56,23,29.90,29.60,21,2,22,0.09
2013-7-4,91.8,77.4,61.3,58.3,51.5,43.3,80,45,19,29.72,29.54,24,2,24,0.04
2013-7-5,95.4,76.5,66.7,66.7,55.8,47.5,93,52,21,29.67,29.45,19,2,19,0.51
2013-7-6,93.4,76.9,64.0,64.8,56.0,41.4,94,55,17,29.72,29.53,18,2,18,0.08
2013-7-7,96.1,79.8,64.0,61.0,55.0,44.8,86,48,20,29.72,29.57,14,2,16,0.01
2013-7-8,97.0,80.5,66.0,64.6,55.3,49.5,89,46,21,29.83,29.63,20,2,20,0.41
2013-7-9,97.3,78.7,65.7,63.3,57.8,48.9,89,53,22,29.85,29.70,21,2,23,0.00
2013-7-10,95.7,82.9,68.7,59.4,53.5,47.3,71,39,20,29.80,29.61,17,2,17,0.00
2013-7-11,89.4,78.4,69.1,61.5,56.6,49.6,76,49,28,29.81,29.61,20,3,20,0.00
2013-7-12,92.8,80.0,66.4,61.0,55.8,48.9,76,47,23,29.75,29.59,18,2,18,0.00
2013-7-13,94.6,79.6,65.7,63.1,56.0,45.5,90,49,20,29.76,29.62,19,2,20,0.21
2013-7-14,98.6,79.4,66.2,63.1,55.3,46.4,89,48,19,29.77,29.50,31,2,31,0.12
2013-7-15,74.3,68.9,66.2,63.1,56.5,49.6,88,66,49,29.90,29.68,22,4,23,0.01
2013-7-16,83.7,70.5,61.2,52.9,49.2,45.5,71,48,28,29.97,29.83,25,4,27,0.00
2013-7-17,82.6,70.6,59.0,56.3,51.9,46.6,84,54,30,30.05,29.91,19,4,20,0.03
2013-7-18,86.2,73.7,61.3,55.8,53.6,50.7,76,51,33,29.99,29.77,14,2,14,0.00
2013-7-19,89.4,72.5,64.0,65.1,59.9,54.7,88,67,35,29.84,29.65,23,2,24,0.25
2013-7-20,88.3,75.7,65.7,62.8,58.8,52.7,86,58,34,29.77,29.59,12,2,13,0.00
2013-7-21,91.4,77.8,67.6,59.7,55.5,45.7,74,49,23,29.72,29.56,18,2,18,0.00
2013-7-22,94.6,80.0,65.5,58.3,52.3,43.0,77,43,18,29.72,29.56,12,1,13,0.00
2013-7-23,98.2,82.1,66.4,56.7,50.7,41.7,66,37,18,29.70,29.52,14,2,14,0.00
2013-7-24,92.5,75.9,67.6,58.1,53.4,46.8,70,47,26,29.84,29.63,27,2,27,0.00
2013-7-25,87.6,74.7,64.6,60.1,58.4,55.8,81,59,36,29.90,29.74,12,2,12,0.00
2013-7-26,89.1,74.9,62.2,64.2,59.9,53.1,96,64,33,29.94,29.78,44,2,44,0.15
2013-7-27,84.0,71.1,60.3,60.8,57.8,53.2,92,65,38,30.00,29.73,8,2,12,0.00
2013-7-28,89.2,75.3,66.6,62.2,58.4,48.9,80,58,28,29.75,29.58,14,2,14,0.01
2013-7-29,92.8,77.6,63.0,61.7,53.6,42.8,90,50,19,29.81,29.69,15,1,16,0.00
2013-7-30,95.2,79.8,62.8,54.0,48.8,42.3,69,37,17,29.93,29.77,9,1,9,0.00
2013-7-31,95.7,82.1,68.4,54.3,49.4,38.1,60,35,14,29.90,29.72,13,2,15,0.00
2013-8-1,87.8,76.8,67.8,63.3,55.9,50.9,85,50,31,29.86,29.71,13,2,18,0.05
2013-8-2,93.4,75.4,63.9,63.5,59.1,50.5,91,62,24,29.82,29.66,17,1,18,0.06
2013-8-3,92.1,76.7,61.5,61.0,55.9,47.8,91,54,24,29.84,29.71,10,1,12,0.01
2013-8-4,94.8,79.4,66.9,63.1,55.8,43.9,83,48,20,29.80,29.64,16,2,16,0.14
2013-8-5,91.9,75.7,63.0,62.2,57.7,52.3,88,57,29,29.83,29.67,12,1,12,0.00
2013-8-6,89.4,75.8,65.1,55.9,53.1,45.7,67,47,24,29.76,29.65,15,2,16,0.00
2013-8-7,84.4,72.8,61.3,57.7,54.4,50.9,81,54,34,29.78,29.69,17,2,17,0.00
2013-8-8,89.1,75.1,63.1,57.2,50.4,37.4,78,46,19,29.78,29.68,15,2,18,0.00
2013-8-9,90.7,75.3,61.0,51.8,46.6,35.2,65,39,15,29.88,29.75,10,2,10,0.00
2013-8-10,85.5,72.0,63.3,55.6,51.3,43.3,69,50,30,30.02,29.82,20,3,20,0.02
2013-8-11,84.7,71.3,61.0,57.4,53.7,46.0,86,58,27,30.03,29.83,12,2,12,0.01
2013-8-12,86.5,73.3,65.1,58.8,55.7,51.4,75,55,32,29.93,29.77,14,2,14,0.00
2013-8-13,88.9,75.2,61.2,56.3,51.2,32.5,80,47,15,29.91,29.76,13,1,14,0.00
2013-8-14,90.5,76.5,62.1,58.6,51.8,38.8,79,46,19,29.87,29.72,22,2,22,0.00
2013-8-15,93.2,77.0,61.9,55.9,49.4,31.5,77,43,12,29.89,29.73,11,2,11,0.00
2013-8-16,97.7,80.4,63.0,52.2,45.0,28.2,62,33,9,29.86,29.70,14,2,17,0.00
2013-8-17,97.7,82.8,72.0,58.3,45.8,35.8,52,29,12,29.81,29.62,15,2,15,0.03
2013-8-18,94.5,80.9,68.4,55.2,49.1,41.5,59,36,17,29.81,29.65,15,1,17,0.00
2013-8-19,96.6,79.2,66.2,57.7,50.7,43.0,67,40,17,29.80,29.62,17,2,18,0.00
2013-8-20,91.8,74.8,62.6,64.9,56.3,48.9,83,56,24,29.82,29.66,20,1,22,0.12
2013-8-21,89.4,76.5,62.4,60.6,54.8,47.1,88,51,27,29.83,29.70,18,1,18,0.00
2013-8-22,92.1,78.7,63.7,53.6,48.2,39.7,66,37,21,29.85,29.66,13,1,14,0.00
2013-8-23,88.2,75.2,59.4,51.1,46.2,37.9,60,37,25,29.82,29.67,17,2,18,0.00
2013-8-24,86.5,74.6,66.9,64.4,54.6,48.9,89,52,29,29.86,29.72,24,2,24,0.07
2013-8-25,86.2,73.1,66.4,64.9,59.5,54.1,83,64,35,29.93,29.83,17,1,19,0.06
2013-8-26,89.1,75.8,61.7,62.8,56.2,46.9,91,55,30,29.97,29.80,16,2,16,0.00
2013-8-27,89.2,77.0,62.2,55.4,51.1,45.7,73,43,26,29.87,29.69,13,2,13,0.00
2013-8-28,89.1,76.1,63.7,56.1,52.3,48.0,68,45,27,29.87,29.74,14,2,14,0.00
2013-8-29,87.1,76.4,69.1,58.8,55.1,51.6,63,49,31,29.91,29.80,17,2,17,0.00
2013-8-30,92.8,79.2,65.5,61.5,54.9,43.5,82,48,20,29.88,29.70,11,2,11,0.00
2013-8-31,95.0,80.7,65.5,57.7,51.2,43.2,72,39,19,29.77,29.58,10,1,10,0.00
2013-9-1,96.6,77.9,65.7,63.3,51.9,46.8,87,43,21,29.82,29.61,26,2,30,0.12
2013-9-2,90.0,76.8,66.2,64.0,56.1,49.3,88,52,27,29.85,29.71,15,1,15,0.00
2013-9-3,93.4,76.7,64.9,62.6,55.8,47.1,81,53,23,29.86,29.69,20,1,24,0.45
2013-9-4,91.8,77.5,62.6,61.5,49.1,33.3,83,43,16,29.93,29.78,13,2,13,0.00
2013-9-5,91.0,77.1,58.5,47.1,41.3,33.6,65,31,16,29.94,29.80,11,1,11,0.00
2013-9-6,91.2,75.7,57.6,47.7,41.9,37.2,60,32,17,29.93,29.73,11,1,12,0.00
2013-9-7,90.0,75.1,61.3,64.0,51.2,43.9,67,45,26,29.85,29.68,15,1,17,0.04
2013-9-8,89.6,74.8,59.5,55.9,50.4,46.4,77,45,24,29.79,29.58,15,1,15,0.00
2013-9-9,89.1,75.1,61.0,55.6,51.5,43.2,78,47,24,29.69,29.53,16,2,16,0.00
2013-9-10,74.5,66.0,61.9,62.8,58.4,53.1,96,78,53,29.85,29.65,14,1,15,0.71
2013-9-11,81.9,69.4,61.5,64.0,59.0,49.1,98,73,33,29.92,29.79,21,2,21,0.02
2013-9-12,73.0,65.6,60.6,65.8,60.1,55.8,95,83,69,29.88,29.77,14,2,14,0.55
2013-9-13,74.5,64.3,59.4,61.5,59.8,55.6,97,86,56,29.88,29.75,12,1,13,0.37
2013-9-14,75.2,64.5,57.9,61.3,58.5,54.3,97,82,53,29.85,29.73,15,1,15,0.98
2013-9-15,79.0,66.3,56.7,61.0,55.5,49.1,97,71,38,29.91,29.81,13,1,14,0.19
2013-9-16,79.2,67.5,55.8,57.2,54.4,50.4,94,66,39,29.99,29.84,12,1,13,0.00
2013-9-17,81.7,70.0,57.4,59.2,56.1,51.4,93,64,37,29.91,29.68,11,2,13,0.00
2013-9-18,80.4,68.8,64.6,60.4,58.6,56.8,80,71,46,29.74,29.67,13,2,13,0.00
2013-9-19,84.0,74.6,61.2,52.2,48.9,43.5,67,43,25,29.71,29.63,8,1,9,0.06
2013-9-20,81.7,70.2,59.4,54.1,51.7,43.7,73,53,36,29.85,29.71,24,3,24,0.00
2013-9-21,80.4,67.9,55.0,57.2,53.4,49.8,92,63,37,29.87,29.67,13,2,13,0.00
2013-9-22,80.4,68.0,57.9,56.3,51.6,44.8,87,59,29,29.70,29.37,28,4,29,0.22
2013-9-23,73.8,62.4,45.3,41.0,37.8,31.8,81,43,23,29.81,29.71,14,2,15,0.30
2013-9-24,76.6,65.9,46.8,46.2,42.2,37.2,81,45,26,30.05,29.83,9,1,9,0.00
2013-9-25,84.2,66.7,46.9,47.5,42.4,35.6,89,47,21,29.83,29.52,19,2,19,0.00
2013-9-26,82.9,68.4,52.0,45.5,40.2,31.3,73,40,18,29.64,29.49,19,3,19,0.00
2013-9-27,72.5,61.6,46.6,50.5,41.7,33.1,62,48,41,29.91,29.54,20,3,20,0.00
2013-9-28,70.0,52.9,36.5,34.3,27.6,15.6,80,44,13,30.17,29.91,10,1,10,0.00
2013-9-29,77.5,57.8,38.8,34.3,29.3,20.7,78,40,13,30.18,29.93,8,1,8,0.00
2013-9-30,83.1,62.4,43.2,39.2,32.6,24.4,70,38,13,29.96,29.73,9,0,9,0.00
2013-10-1,84.2,63.9,44.8,36.1,30.2,15.4,71,35,8,29.89,29.74,8,0,8,0.00
2013-10-2,80.8,62.7,43.3,37.8,31.1,18.0,71,36,10,29.90,29.72,9,1,10,0.00
2013-10-3,78.8,63.2,45.0,39.6,33.3,23.7,74,37,14,29.80,29.57,14,2,14,0.00
2013-10-4,64.8,56.4,48.6,34.7,21.4,7.2,50,28,13,30.04,29.65,20,4,20,0.00
2013-10-5,63.7,50.9,38.3,24.6,19.6,13.6,55,31,15,30.23,30.04,13,2,14,0.00
2013-10-6,70.2,52.4,35.2,29.8,23.6,17.2,65,36,14,30.32,30.14,7,0,7,0.00
2013-10-7,75.7,56.2,37.4,31.6,26.5,16.9,70,37,12,30.23,29.98,10,1,10,0.00
2013-10-8,79.0,61.5,44.2,35.2,30.8,26.6,68,35,15,29.98,29.69,13,2,13,0.00
2013-10-9,76.3,61.4,44.1,39.0,33.4,25.7,70,39,16,29.80,29.65,16,2,22,0.00
2013-10-10,71.1,56.5,43.0,48.4,36.5,27.7,78,49,26,29.87,29.54,31,4,32,0.10
2013-10-11,63.3,48.6,33.4,34.3,31.9,29.3,89,56,30,30.04,29.86,13,1,14,0.00
2013-10-12,70.9,53.9,37.8,39.0,34.6,31.5,84,52,24,30.14,29.96,16,2,17,0.00
2013-10-13,78.3,61.8,44.8,43.9,39.2,33.6,75,47,20,30.04,29.76,25,3,26,0.00
2013-10-14,70.5,58.9,45.9,44.4,30.5,17.4,77,38,15,29.92,29.78,16,2,16,0.00
2013-10-15,66.9,51.4,36.1,32.7,28.5,23.4,70,43,27,30.02,29.83,28,5,33,0.01
2013-10-16,63.0,51.7,44.1,36.3,28.4,12.7,67,44,19,30.06,29.94,24,3,24,0.00
2013-10-17,64.8,48.0,32.4,27.9,22.1,16.7,69,39,16,30.14,29.91,7,0,8,0.00
2013-10-18,64.2,49.4,32.7,27.5,19.3,9.7,73,36,13,30.14,29.93,14,1,14,0.00
2013-10-19,65.5,47.6,32.2,29.8,24.5,16.9,83,47,16,30.21,30.01,9,1,9,0.00
2013-10-20,71.1,53.0,33.6,25.3,19.5,8.8,65,31,10,30.05,29.80,14,1,14,0.00
2013-10-21,64.8,52.6,40.8,32.4,28.8,18.9,65,42,22,30.11,29.91,17,1,17,0.00
2013-10-22,69.3,50.0,32.9,30.6,25.9,13.6,81,45,12,30.27,30.10,6,0,6,0.00
2013-10-23,71.8,52.4,35.4,30.4,27.1,22.8,69,41,17,30.20,30.02,10,1,10,0.00
2013-10-24,74.7,56.0,38.7,50.2,33.0,27.1,86,47,19,30.15,29.96,22,1,22,0.06
2013-10-25,66.6,54.2,45.9,51.6,45.3,38.8,92,73,45,30.14,29.96,12,2,13,0.09
2013-10-26,68.2,52.2,37.8,44.4,39.5,35.2,94,66,35,30.27,30.10,7,0,8,0.00
2013-10-27,69.6,53.6,38.5,40.1,36.7,31.8,91,57,26,30.17,29.83,10,1,10,0.00
2013-10-28,70.7,57.0,43.9,42.3,32.7,18.9,83,46,18,29.86,29.72,15,2,15,0.00
2013-10-29,68.7,58.6,48.9,28.0,25.3,21.4,40,28,19,29.89,29.67,23,4,26,0.00
2013-10-30,61.0,50.6,39.9,37.6,32.1,24.4,73,50,32,29.91,29.67,15,2,15,0.00
2013-10-31,56.8,45.0,32.7,30.9,26.8,22.6,79,52,28,30.12,29.91,19,2,19,0.00
2013-11-1,61.5,48.6,35.2,29.7,26.5,21.7,72,45,22,30.23,30.06,12,1,12,0.00
2013-11-2,64.0,48.3,31.8,28.8,25.8,20.5,80,45,20,30.32,30.01,10,1,13,0.00
2013-11-3,68.4,54.7,42.6,35.2,30.0,24.3,59,40,22,30.01,29.65,14,1,14,0.00
2013-11-4,66.9,54.3,38.3,43.7,36.0,32.2,82,53,29,29.85,29.67,17,3,19,0.00
2013-11-5,55.6,45.5,34.9,44.4,33.0,17.1,93,64,41,30.25,29.69,15,2,15,0.15
2013-11-6,54.9,40.5,25.5,20.8,16.4,10.4,74,40,19,30.50,30.25,11,1,11,0.00
2013-11-7,60.1,43.0,29.5,26.1,22.9,17.8,78,48,21,30.54,30.29,8,1,8,0.00
2013-11-8,63.0,45.0,28.6,28.9,25.6,20.8,86,51,22,30.30,30.04,8,1,8,0.00
2013-11-9,68.5,48.4,31.3,29.1,26.1,21.2,81,47,17,30.22,30.10,5,0,5,0.00
2013-11-10,68.4,49.1,35.2,30.0,26.7,19.8,71,45,17,30.30,30.15,8,1,8,0.00
2013-11-11,68.5,50.6,35.2,29.5,26.0,19.9,75,42,16,30.33,30.16,11,1,11,0.00
2013-11-12,58.5,46.9,37.9,36.3,31.4,23.2,77,56,38,30.52,30.32,17,2,17,0.00
2013-11-13,55.9,43.8,31.3,39.4,35.2,28.8,92,73,51,30.50,30.16,10,1,10,0.00
2013-11-14,60.4,46.4,35.6,41.2,35.7,30.2,94,69,37,30.16,29.92,7,0,7,0.00
2013-11-15,61.2,46.0,31.8,45.9,34.8,26.2,93,67,37,29.93,29.66,25,2,25,0.18
2013-11-16,61.0,50.1,42.1,44.6,38.0,28.9,93,66,38,29.81,29.57,9,1,9,0.01
2013-11-17,60.4,48.4,36.0,34.2,31.8,29.7,82,55,35,30.14,29.80,16,2,17,0.00
2013-11-18,56.1,40.8,34.0,32.4,30.8,28.6,85,69,41,30.25,30.12,7,0,7,0.00
2013-11-19,47.8,45.5,45.1,36.7,33.4,-99.9,70,66,64,29.90,29.89,4,-19,4,0.00
2013-11-20,48.7,44.1,38.7,42.8,37.8,30.6,94,79,57,29.95,29.84,8,1,8,0.21
2013-11-21,58.3,47.3,41.4,47.5,43.1,37.2,97,86,58,30.08,29.94,21,1,21,0.28
2013-11-22,41.2,35.4,31.8,37.4,26.9,23.0,86,71,65,30.43,30.05,35,8,35,0.04
2013-11-23,37.2,33.5,26.8,31.5,24.5,17.8,92,70,53,30.51,30.38,33,8,33,0.00
2013-11-24,33.6,29.1,23.0,25.0,21.2,14.5,86,72,58,30.47,30.27,24,4,24,0.00
2013-11-25,46.8,34.6,27.7,31.3,27.8,24.8,92,77,52,30.44,30.23,7,1,11,0.02
2013-11-26,48.6,35.3,25.0,30.7,27.3,22.5,92,74,48,30.57,30.44,6,0,6,0.00
2013-11-27,46.8,35.2,24.4,29.5,26.8,22.3,92,73,48,30.51,30.29,7,1,7,0.00
2013-11-28,49.6,36.0,24.6,27.9,25.6,22.6,92,68,38,30.39,30.27,7,0,7,0.00
2013-11-29,54.9,37.7,25.9,31.5,27.9,23.4,91,70,38,30.47,30.31,5,0,5,0.01
2013-11-30,56.8,40.9,28.9,32.9,30.3,26.4,91,69,39,30.41,30.23,6,0,6,0.00
2013-12-1,50.0,39.4,33.3,33.1,30.3,27.3,86,71,50,30.36,30.25,16,3,16,0.00
2013-12-2,53.2,39.4,30.7,29.8,27.5,25.0,80,64,40,30.29,29.92,9,1,10,0.00
2013-12-3,65.1,46.4,30.0,29.5,21.6,12.0,81,44,13,29.93,29.60,15,2,15,0.00
2013-12-4,60.8,47.6,37.6,31.3,23.8,15.1,67,41,21,29.81,29.49,25,4,25,0.00
2013-12-5,38.5,27.8,15.3,31.5,23.9,11.1,94,86,53,30.14,29.77,10,1,10,0.06
2013-12-6,35.8,23.5,13.1,20.8,15.8,10.2,92,74,41,30.40,30.14,10,1,10,0.12
2013-12-7,34.2,26.1,16.5,30.2,21.3,11.7,88,82,75,30.34,30.01,9,1,10,0.00
2013-12-8,36.3,30.5,25.7,27.5,17.8,10.9,88,60,47,30.13,29.93,16,3,16,0.02
2013-12-9,31.6,25.4,14.7,17.2,9.1,1.0,71,51,29,30.68,30.12,21,3,21,0.00
2013-12-10,34.9,22.0,11.1,10.4,5.2,1.0,71,50,26,30.72,30.51,15,1,15,0.00
2013-12-11,43.2,27.2,14.5,18.7,12.9,7.9,78,57,28,30.73,30.54,9,1,9,0.00
2013-12-12,43.0,30.5,21.2,21.2,17.5,11.8,77,59,40,30.69,30.28,10,1,10,0.00
2013-12-13,47.7,37.2,31.5,32.4,26.5,19.6,89,66,52,30.28,30.04,15,2,15,0.00
2013-12-14,46.9,35.9,26.1,20.8,19.0,16.3,75,52,32,30.51,30.19,12,2,13,0.00
2013-12-15,48.9,35.8,23.4,21.4,18.9,16.5,78,52,30,30.54,30.39,16,2,16,0.00
2013-12-16,56.5,40.7,25.7,24.1,21.5,19.2,79,49,25,30.51,30.34,13,1,13,0.00
2013-12-17,59.4,41.5,25.9,23.7,22.1,19.8,81,49,23,30.50,30.33,9,1,9,0.00
2013-12-18,56.3,38.5,25.3,26.6,23.4,20.5,84,58,29,30.34,29.99,7,0,7,0.00
2013-12-19,58.3,43.3,27.9,27.7,23.4,17.8,83,48,26,29.99,29.70,9,1,9,0.00
2013-12-20,55.2,40.9,28.4,32.4,24.7,18.7,79,55,26,29.81,29.63,11,1,11,0.00
2013-12-21,42.6,37.5,33.8,32.9,28.6,24.6,93,71,52,29.90,29.56,16,3,17,0.15
2013-12-22,45.5,34.7,28.0,26.1,21.6,15.6,72,59,30,30.40,29.90,12,2,12,0.00
2013-12-23,50.2,35.3,23.2,21.6,19.4,16.0,78,54,30,30.60,30.40,8,1,9,0.00
2013-12-24,51.3,37.7,24.1,24.8,21.8,18.9,82,55,31,30.52,30.26,17,1,18,0.00
2013-12-25,48.9,35.6,25.7,23.4,18.3,11.7,75,52,26,30.51,30.37,14,1,14,0.00
2013-12-26,51.4,33.7,18.1,19.4,16.1,12.4,84,52,25,30.56,30.36,10,0,10,0.00
2013-12-27,53.8,36.7,26.6,19.9,16.3,12.9,67,46,22,30.50,30.31,12,1,14,0.00
2013-12-28,50.5,34.8,20.5,21.0,17.8,14.7,83,53,25,30.32,30.02,9,1,10,0.00
2013-12-29,46.2,38.0,27.7,26.1,22.5,20.5,77,54,36,30.27,30.06,12,1,14,0.00
2013-12-30,53.8,36.6,23.2,21.0,14.8,6.8,81,46,17,30.45,30.26,15,1,15,0.00
2013-12-31,52.9,35.9,21.0,19.6,16.4,14.2,78,48,23,30.46,30.24,8,1,9,0.00
2014-1-1,55.8,39.6,25.2,23.0,18.4,13.3,75,46,19,30.37,30.17,18,2,19,0.00
2014-1-2,53.4,36.3,22.5,23.5,16.3,9.5,81,49,17,30.46,30.31,7,0,7,0.00